createdAt,value
2022-08-09T00:00:11.955Z,15.86
2022-08-09T00:02:49.318Z,15.84
2022-08-09T00:06:15.571Z,15.83
2022-08-09T00:08:13.131Z,15.74
2022-08-09T00:10:59.860Z,15.71
2022-08-09T00:13:28.185Z,15.69
2022-08-09T00:16:02.856Z,15.66
2022-08-09T00:18:35.786Z,15.66
2022-08-09T00:21:08.676Z,15.63
2022-08-09T00:23:55.605Z,15.62
2022-08-09T00:26:32.960Z,15.64
2022-08-09T00:29:12.333Z,15.65
2022-08-09T00:31:59.777Z,15.66
2022-08-09T00:34:27.963Z,15.67
2022-08-09T00:37:00.347Z,15.66
2022-08-09T00:40:12.635Z,15.64
2022-08-09T00:44:14.579Z,15.61
2022-08-09T00:45:03.819Z,15.58
2022-08-09T00:47:43.666Z,15.52
2022-08-09T00:50:14.828Z,15.49
2022-08-09T00:52:42.633Z,15.47
2022-08-09T00:55:10.364Z,15.42
2022-08-09T00:57:59.347Z,15.34
2022-08-09T01:00:27.135Z,15.26
2022-08-09T01:03:08.043Z,15.18
2022-08-09T01:06:18.161Z,15.23
2022-08-09T01:09:03.494Z,15.19
2022-08-09T01:12:00.924Z,15.13
2022-08-09T01:14:36.343Z,15.11
2022-08-09T01:17:19.343Z,15.08
2022-08-09T01:20:02.524Z,15.07
2022-08-09T01:22:52.158Z,15.05
2022-08-09T01:25:42.003Z,15.01
2022-08-09T01:28:16.422Z,14.95
2022-08-09T01:30:51.812Z,14.98
2022-08-09T01:33:26.253Z,14.98
2022-08-09T01:35:59.194Z,14.96
2022-08-09T01:38:29.866Z,14.91
2022-08-09T01:41:09.303Z,14.91
2022-08-09T01:43:50.746Z,14.86
2022-08-09T01:46:29.955Z,14.89
2022-08-09T01:49:10.216Z,14.87
2022-08-09T01:51:42.695Z,14.85
2022-08-09T01:54:13.739Z,14.78
2022-08-09T01:56:51.380Z,14.80
2022-08-09T01:59:21.470Z,14.70
2022-08-09T02:01:59.047Z,14.72
2022-08-09T02:04:31.578Z,14.72
2022-08-09T02:07:18.498Z,14.69
2022-08-09T02:10:07.591Z,14.68
2022-08-09T02:12:37.502Z,14.71
2022-08-09T02:15:15.343Z,14.69
2022-08-09T02:18:09.724Z,14.60
2022-08-09T02:20:40.752Z,14.62
2022-08-09T02:23:16.909Z,14.57
2022-08-09T02:25:52.683Z,14.55
2022-08-09T02:28:34.550Z,14.52
2022-08-09T02:31:13.389Z,14.49
2022-08-09T02:34:06.243Z,14.45
2022-08-09T02:36:36.857Z,14.45
2022-08-09T02:39:19.823Z,14.39
2022-08-09T02:42:03.272Z,14.38
2022-08-09T02:44:37.718Z,14.34
2022-08-09T02:47:09.826Z,14.30
2022-08-09T02:49:43.335Z,14.29
2022-08-09T02:52:15.167Z,14.25
2022-08-09T02:54:54.135Z,14.22
2022-08-09T02:57:26.725Z,14.19
2022-08-09T03:00:21.389Z,14.18
2022-08-09T03:02:59.909Z,14.17
2022-08-09T03:05:34.456Z,14.14
2022-08-09T03:08:04.183Z,14.09
2022-08-09T03:10:36.534Z,14.05
2022-08-09T03:13:08.400Z,13.99
2022-08-09T03:16:04.658Z,13.99
2022-08-09T03:18:30.474Z,13.93
2022-08-09T03:20:59.448Z,13.95
2022-08-09T03:23:26.656Z,13.93
2022-08-09T03:26:04.741Z,13.89
2022-08-09T03:28:34.277Z,13.86
2022-08-09T03:31:10.033Z,13.79
2022-08-09T03:33:53.567Z,13.86
2022-08-09T03:36:27.006Z,13.84
2022-08-09T03:38:58.618Z,13.82
2022-08-09T03:41:44.983Z,13.82
2022-08-09T03:44:15.641Z,13.81
2022-08-09T03:46:44.041Z,13.83
2022-08-09T03:49:11.732Z,13.82
2022-08-09T03:51:58.489Z,13.81
2022-08-09T03:54:38.363Z,13.79
2022-08-09T03:57:18.026Z,13.76
2022-08-09T03:59:55.013Z,13.66
2022-08-09T04:02:28.325Z,13.66
2022-08-09T04:05:00.962Z,13.66
2022-08-09T04:07:47.608Z,13.60
2022-08-09T04:10:18.317Z,13.55
2022-08-09T04:12:51.666Z,13.54
2022-08-09T04:15:40.455Z,13.52
2022-08-09T04:18:08.929Z,13.51
2022-08-09T04:20:36.908Z,13.41
2022-08-09T04:23:10.003Z,13.45
2022-08-09T04:25:51.733Z,13.42
2022-08-09T04:28:33.711Z,13.45
2022-08-09T04:31:08.069Z,13.42
2022-08-09T04:33:52.712Z,13.43
2022-08-09T04:36:26.542Z,13.34
2022-08-09T04:38:57.265Z,13.40
2022-08-09T04:41:32.563Z,13.41
2022-08-09T04:44:07.065Z,13.41
2022-08-09T04:46:58.314Z,13.40
2022-08-09T04:49:40.490Z,13.40
2022-08-09T04:52:21.899Z,13.39
2022-08-09T04:54:53.816Z,13.44
2022-08-09T04:57:23.920Z,13.48
2022-08-09T04:59:57.257Z,13.48
2022-08-09T05:02:27.477Z,13.47
2022-08-09T05:04:57.772Z,13.58
2022-08-09T05:07:32.024Z,13.61
2022-08-09T05:09:59.335Z,13.64
2022-08-09T05:12:29.865Z,13.68
2022-08-09T05:14:58.345Z,13.69
2022-08-09T05:18:50.899Z,13.73
2022-08-09T05:20:13.497Z,13.82
2022-08-09T05:23:54.880Z,13.85
2022-08-09T05:25:32.381Z,13.86
2022-08-09T05:27:59.943Z,13.99
2022-08-09T05:30:30.139Z,14.04
2022-08-09T05:32:58.628Z,14.16
2022-08-09T05:35:26.816Z,14.24
2022-08-09T05:37:57.338Z,14.34
2022-08-09T05:40:28.773Z,14.35
2022-08-09T05:42:57.557Z,14.37
2022-08-09T05:45:25.461Z,14.52
2022-08-09T05:48:10.760Z,14.58
2022-08-09T05:50:51.227Z,14.58
2022-08-09T05:53:33.298Z,14.56
2022-08-09T05:56:01.839Z,14.67
2022-08-09T05:58:28.953Z,14.75
2022-08-09T06:00:58.921Z,14.81
2022-08-09T06:03:34.755Z,14.74
2022-08-09T06:06:11.966Z,14.87
2022-08-09T06:08:39.105Z,14.90
2022-08-09T06:11:16.333Z,15.14
2022-08-09T06:13:44.820Z,15.25
2022-08-09T06:16:14.740Z,15.43
2022-08-09T06:18:43.605Z,15.53
2022-08-09T06:21:10.807Z,15.65
2022-08-09T06:23:58.416Z,15.82
2022-08-09T06:26:28.288Z,15.88
2022-08-09T06:29:00.711Z,16.02
2022-08-09T06:31:39.317Z,15.95
2022-08-09T06:34:26.253Z,16.00
2022-08-09T06:36:59.781Z,16.08
2022-08-09T06:39:49.238Z,16.27
2022-08-09T06:42:20.188Z,16.45
2022-08-09T06:44:54.257Z,16.50
2022-08-09T06:47:23.689Z,16.66
2022-08-09T06:50:14.606Z,16.72
2022-08-09T06:52:47.262Z,16.92
2022-08-09T06:55:17.509Z,17.08
2022-08-09T06:58:02.795Z,17.26
2022-08-09T07:00:57.359Z,17.32
2022-08-09T07:03:28.217Z,17.59
2022-08-09T07:06:03.771Z,17.85
2022-08-09T07:08:32.500Z,17.96
2022-08-09T07:10:59.610Z,18.14
2022-08-09T07:13:45.025Z,18.38
2022-08-09T07:16:42.092Z,18.61
2022-08-09T07:19:06.129Z,18.79
2022-08-09T07:21:38.525Z,18.67
2022-08-09T07:24:10.172Z,18.82
2022-08-09T07:26:40.129Z,18.95
2022-08-09T07:29:12.031Z,19.08
2022-08-09T07:31:45.373Z,19.11
2022-08-09T07:34:20.583Z,19.02
2022-08-09T07:36:50.284Z,19.12
2022-08-09T07:39:41.237Z,19.29
2022-08-09T07:42:09.370Z,19.15
2022-08-09T07:44:51.666Z,19.35
2022-08-09T07:47:23.231Z,19.60
2022-08-09T07:50:07.959Z,19.55
2022-08-09T07:52:37.649Z,19.58
2022-08-09T07:55:09.994Z,19.27
2022-08-09T07:57:46.513Z,19.27
2022-08-09T08:00:20.865Z,19.28
2022-08-09T08:03:08.063Z,19.43
2022-08-09T08:05:54.161Z,19.74
2022-08-09T08:09:01.017Z,19.89
2022-08-09T08:12:09.239Z,20.16
2022-08-09T08:14:00.745Z,20.32
2022-08-09T08:16:31.459Z,20.41
2022-08-09T08:19:03.059Z,20.31
2022-08-09T08:21:31.639Z,20.07
2022-08-09T08:24:01.327Z,20.05
2022-08-09T08:26:54.605Z,20.17
2022-08-09T08:29:28.599Z,20.21
2022-08-09T08:32:06.472Z,20.11
2022-08-09T08:34:36.531Z,20.10
2022-08-09T08:37:05.767Z,20.14
2022-08-09T08:39:43.366Z,20.13
2022-08-09T08:42:11.550Z,20.38
2022-08-09T08:44:41.295Z,20.54
2022-08-09T08:47:12.992Z,20.74
2022-08-09T08:49:47.367Z,20.85
2022-08-09T08:52:57.372Z,20.79
2022-08-09T08:55:06.323Z,20.83
2022-08-09T08:57:35.103Z,20.97
2022-08-09T09:00:13.068Z,21.04
2022-08-09T09:03:00.371Z,21.17
2022-08-09T09:06:01.234Z,21.23
2022-08-09T09:08:29.988Z,21.41
2022-08-09T09:11:04.298Z,21.55
2022-08-09T09:13:47.301Z,21.57
2022-08-09T09:16:34.356Z,21.42
2022-08-09T09:22:07.771Z,21.67
2022-08-09T09:24:43.369Z,21.57
2022-08-09T09:28:05.210Z,21.63
2022-08-09T09:30:40.157Z,21.71
2022-08-09T09:33:16.668Z,21.58
2022-08-09T09:36:01.455Z,21.75
2022-08-09T09:38:52.761Z,21.95
2022-08-09T09:41:27.922Z,22.04
2022-08-09T09:44:12.616Z,22.12
2022-08-09T09:46:50.359Z,22.24
2022-08-09T09:49:50.113Z,22.43
2022-08-09T09:52:33.459Z,22.51
2022-08-09T09:55:28.469Z,22.42
2022-08-09T09:58:15.951Z,22.48
2022-08-09T10:00:59.155Z,22.56
2022-08-09T10:04:03.276Z,22.54
2022-08-09T10:06:42.567Z,22.43
2022-08-09T10:09:22.312Z,22.43
2022-08-09T10:12:14.844Z,22.49
2022-08-09T10:14:51.539Z,22.56
2022-08-09T10:17:40.276Z,22.57
2022-08-09T10:20:17.335Z,22.57
2022-08-09T10:23:00.898Z,22.48
2022-08-09T10:25:34.523Z,22.61
2022-08-09T10:28:01.823Z,22.74
2022-08-09T10:34:04.499Z,22.84
2022-08-09T10:36:09.586Z,23.12
2022-08-09T10:38:56.937Z,23.22
2022-08-09T10:41:27.968Z,23.07
2022-08-09T10:44:01.276Z,22.95
2022-08-09T10:46:29.187Z,22.99
2022-08-09T10:49:42.307Z,22.86
2022-08-09T10:52:44.946Z,22.71
2022-08-09T10:55:24.331Z,22.92
2022-08-09T10:58:00.343Z,23.07
2022-08-09T11:00:41.897Z,23.10
2022-08-09T11:03:46.911Z,23.04
2022-08-09T11:06:16.792Z,23.07
2022-08-09T11:08:47.891Z,23.16
2022-08-09T11:11:19.742Z,23.27
2022-08-09T11:13:50.296Z,23.24
2022-08-09T11:16:37.310Z,23.28
2022-08-09T11:19:09.538Z,23.34
2022-08-09T11:22:10.204Z,23.49
2022-08-09T11:25:08.512Z,23.68
2022-08-09T11:28:03.041Z,23.58
2022-08-09T11:30:33.221Z,23.41
2022-08-09T11:33:16.665Z,23.54
2022-08-09T11:36:00.825Z,23.70
2022-08-09T11:38:33.031Z,23.73
2022-08-09T11:41:12.850Z,23.79
2022-08-09T11:43:43.411Z,24.05
2022-08-09T11:46:10.950Z,24.07
2022-08-09T11:48:57.380Z,24.12
2022-08-09T11:53:02.177Z,24.19
2022-08-09T11:54:27.887Z,24.50
2022-08-09T11:57:47.510Z,24.75
2022-08-09T12:00:31.650Z,24.99
2022-08-09T12:03:31.906Z,25.00
2022-08-09T12:05:49.707Z,25.22
2022-08-09T12:08:20.074Z,24.92
2022-08-09T12:10:54.368Z,24.92
2022-08-09T12:14:10.582Z,25.14
2022-08-09T12:16:40.151Z,25.36
2022-08-09T12:19:10.011Z,25.47
2022-08-09T12:21:50.396Z,25.42
2022-08-09T12:24:24.512Z,25.34
2022-08-09T12:29:10.283Z,25.39
2022-08-09T12:30:01.580Z,25.20
2022-08-09T12:32:45.074Z,25.22
2022-08-09T12:35:19.432Z,25.47
2022-08-09T12:37:51.769Z,25.56
2022-08-09T12:40:24.418Z,25.56
2022-08-09T12:42:56.045Z,25.98
2022-08-09T12:45:32.764Z,25.65
2022-08-09T12:48:10.995Z,25.94
2022-08-09T12:50:53.297Z,25.64
2022-08-09T12:53:35.229Z,25.78
2022-08-09T12:56:11.884Z,25.87
2022-08-09T12:59:14.343Z,26.14
2022-08-09T13:01:48.801Z,26.13
2022-08-09T13:04:33.181Z,26.46
2022-08-09T13:07:16.562Z,26.85
2022-08-09T13:09:55.740Z,27.64
2022-08-09T13:12:29.195Z,27.90
2022-08-09T13:15:09.893Z,28.40
2022-08-09T13:18:03.401Z,28.87
2022-08-09T13:22:34.306Z,29.42
2022-08-09T13:24:16.866Z,29.61
2022-08-09T13:26:38.984Z,30.51
2022-08-09T13:29:16.242Z,29.97
2022-08-09T13:32:20.250Z,30.12
2022-08-09T13:34:47.155Z,29.77
2022-08-09T13:37:50.478Z,28.93
2022-08-09T13:41:54.353Z,29.67
2022-08-09T13:42:57.757Z,30.16
2022-08-09T13:46:07.392Z,29.58
2022-08-09T13:48:14.651Z,29.67
2022-08-09T13:50:43.067Z,29.21
2022-08-09T13:53:10.799Z,28.62
2022-08-09T13:55:38.058Z,28.11
2022-08-09T13:58:11.893Z,28.01
2022-08-09T14:00:48.141Z,28.38
2022-08-09T14:04:02.458Z,28.14
2022-08-09T14:06:25.497Z,28.02
2022-08-09T14:08:56.198Z,27.73
2022-08-09T14:11:23.601Z,28.54
2022-08-09T14:14:22.681Z,28.74
2022-08-09T14:16:37.973Z,28.43
2022-08-09T14:19:07.680Z,28.58
2022-08-09T14:21:35.942Z,28.82
2022-08-09T14:24:18.435Z,28.83
2022-08-09T14:26:53.604Z,28.20
2022-08-09T14:30:18.694Z,28.43
2022-08-09T14:32:13.034Z,28.77
2022-08-09T14:34:41.112Z,28.73
2022-08-09T14:37:08.702Z,28.85
2022-08-09T14:39:47.001Z,29.65
2022-08-09T14:42:31.429Z,29.13
2022-08-09T14:45:14.812Z,28.75
2022-08-09T14:47:56.879Z,29.58
2022-08-09T14:50:25.656Z,29.99
2022-08-09T14:52:54.016Z,29.25
2022-08-09T14:55:23.548Z,28.54
2022-08-09T14:57:54.219Z,28.88
2022-08-09T15:00:23.201Z,28.83
2022-08-09T15:02:53.045Z,28.84
2022-08-09T15:05:20.607Z,28.53
2022-08-09T15:07:56.377Z,28.35
2022-08-09T15:10:25.703Z,27.76
2022-08-09T15:12:57.215Z,27.78
2022-08-09T15:15:28.495Z,27.87
2022-08-09T15:17:58.737Z,27.93
2022-08-09T15:21:55.921Z,27.86
2022-08-09T15:24:01.338Z,27.61
2022-08-09T15:26:02.183Z,27.57
2022-08-09T15:28:33.314Z,27.39
2022-08-09T15:31:09.959Z,27.40
2022-08-09T15:34:31.680Z,27.06
2022-08-09T15:36:29.389Z,26.98
2022-08-09T15:38:59.806Z,27.26
2022-08-09T15:41:31.486Z,27.90
2022-08-09T15:44:03.743Z,28.56
2022-08-09T15:46:34.546Z,28.30
2022-08-09T15:49:23.461Z,27.88
2022-08-09T15:52:04.510Z,27.42
2022-08-09T15:54:46.322Z,27.14
2022-08-09T15:57:34.479Z,26.98
2022-08-09T16:00:14.185Z,26.96
2022-08-09T16:02:54.065Z,26.97
2022-08-09T16:05:46.986Z,27.22
2022-08-09T16:08:29.774Z,27.63
2022-08-09T16:11:02.620Z,28.07
2022-08-09T16:14:02.782Z,28.52
2022-08-09T16:16:26.127Z,29.30
2022-08-09T16:18:57.573Z,29.84
2022-08-09T16:21:26.957Z,30.27
2022-08-09T16:24:02.207Z,30.50
2022-08-09T16:26:34.456Z,30.24
2022-08-09T16:29:14.584Z,30.67
2022-08-09T16:32:18.753Z,30.93
2022-08-09T16:34:54.753Z,31.08
2022-08-09T16:37:21.554Z,31.38
2022-08-09T16:40:09.194Z,31.42
2022-08-09T16:42:36.808Z,31.57
2022-08-09T16:45:06.474Z,30.90
2022-08-09T16:48:40.829Z,30.12
2022-08-09T16:50:33.734Z,30.40
2022-08-09T16:53:02.585Z,30.38
2022-08-09T16:55:57.746Z,30.58
2022-08-09T16:58:18.475Z,30.51
2022-08-09T17:00:46.600Z,29.67
2022-08-09T17:03:22.264Z,28.98
2022-08-09T17:06:07.353Z,28.86
2022-08-09T17:08:46.675Z,29.17
2022-08-09T17:11:40.238Z,29.33
2022-08-09T17:14:25.467Z,29.17
2022-08-09T17:17:01.302Z,28.88
2022-08-09T17:19:47.185Z,28.50
2022-08-09T17:22:28.931Z,27.48
2022-08-09T17:25:04.796Z,26.86
2022-08-09T17:27:49.079Z,26.55
2022-08-09T17:30:25.903Z,26.24
2022-08-09T17:33:04.603Z,26.18
2022-08-09T17:35:34.993Z,25.90
2022-08-09T17:38:14.272Z,25.44
2022-08-09T17:40:50.220Z,25.36
2022-08-09T17:43:34.775Z,25.22
2022-08-09T17:46:09.922Z,25.18
2022-08-09T17:48:51.508Z,25.18
2022-08-09T17:51:20.157Z,25.20
2022-08-09T17:53:53.586Z,25.14
2022-08-09T17:56:28.438Z,25.04
2022-08-09T17:59:01.154Z,24.93
2022-08-09T18:02:03.682Z,24.85
2022-08-09T18:04:18.835Z,24.76
2022-08-09T18:06:54.169Z,24.70
2022-08-09T18:09:40.035Z,24.71
2022-08-09T18:12:17.541Z,24.63
2022-08-09T18:14:54.582Z,24.60
2022-08-09T18:18:01.959Z,24.60
2022-08-09T18:20:56.439Z,24.56
2022-08-09T18:23:04.973Z,24.50
2022-08-09T18:25:53.238Z,24.43
2022-08-09T18:30:40.038Z,24.25
2022-08-09T18:31:51.097Z,24.18
2022-08-09T18:34:14.961Z,24.17
2022-08-09T18:36:42.044Z,24.09
2022-08-09T18:39:16.989Z,24.03
2022-08-09T18:41:53.012Z,23.98
2022-08-09T18:44:26.358Z,23.80
2022-08-09T18:47:08.490Z,23.81
2022-08-09T18:49:43.759Z,23.75
2022-08-09T18:52:18.697Z,23.63
2022-08-09T18:54:53.749Z,23.61
2022-08-09T18:57:23.319Z,23.51
2022-08-09T19:00:03.062Z,23.41
2022-08-09T19:02:37.008Z,23.29
2022-08-09T19:05:19.815Z,23.20
2022-08-09T19:08:03.721Z,23.13
2022-08-09T19:10:39.117Z,23.06
2022-08-09T19:13:20.567Z,22.91
2022-08-09T19:15:59.170Z,22.88
2022-08-09T19:18:37.639Z,22.82
2022-08-09T19:21:09.396Z,22.75
2022-08-09T19:24:33.204Z,22.69
2022-08-09T19:26:31.115Z,22.57
2022-08-09T19:29:15.064Z,22.49
2022-08-09T19:31:49.419Z,22.37
2022-08-09T19:34:22.819Z,22.25
2022-08-09T19:37:00.739Z,22.18
2022-08-09T19:39:43.916Z,22.16
2022-08-09T19:42:19.559Z,22.08
2022-08-09T19:44:50.545Z,21.95
2022-08-09T19:47:27.557Z,21.94
2022-08-09T19:50:10.378Z,21.82
2022-08-09T19:52:49.669Z,21.77
2022-08-09T19:55:30.786Z,21.64
2022-08-09T19:58:16.700Z,21.65
2022-08-09T20:00:45.593Z,21.59
2022-08-09T20:04:10.847Z,21.52
2022-08-09T20:06:22.655Z,21.39
2022-08-09T20:08:57.745Z,21.34
2022-08-09T20:11:43.008Z,21.28
2022-08-09T20:14:15.373Z,21.17
2022-08-09T20:16:54.381Z,21.12
2022-08-09T20:19:49.048Z,21.03
2022-08-09T20:22:16.288Z,21.00
2022-08-09T20:24:53.246Z,20.93
2022-08-09T20:27:29.314Z,20.88
2022-08-09T20:30:00.913Z,20.76
2022-08-09T20:32:33.998Z,20.73
2022-08-09T20:35:02.239Z,20.63
2022-08-09T20:38:08.623Z,20.60
2022-08-09T20:40:18.996Z,20.46
2022-08-09T20:43:12.369Z,20.48
2022-08-09T20:46:00.753Z,20.45
2022-08-09T20:48:31.038Z,20.38
2022-08-09T20:51:00.940Z,20.30
2022-08-09T20:53:36.663Z,20.25
2022-08-09T20:56:21.146Z,20.16
2022-08-09T20:58:54.590Z,20.11
2022-08-09T21:01:34.867Z,20.02
2022-08-09T21:05:51.339Z,19.96
2022-08-09T21:07:12.024Z,19.87
2022-08-09T21:09:56.532Z,19.83
2022-08-09T21:12:32.295Z,19.78
2022-08-09T21:15:23.885Z,19.70
2022-08-09T21:18:21.398Z,19.68
2022-08-09T21:20:53.867Z,19.64
2022-08-09T21:23:36.090Z,19.63
2022-08-09T21:26:11.582Z,19.63
2022-08-09T21:28:39.607Z,19.58
2022-08-09T21:31:23.521Z,19.51
2022-08-09T21:33:53.031Z,19.42
2022-08-09T21:36:28.607Z,19.39
2022-08-09T21:38:59.922Z,19.32
2022-08-09T21:42:05.075Z,19.32
2022-08-09T21:44:33.048Z,19.30
2022-08-09T21:47:05.629Z,19.23
2022-08-09T21:49:40.608Z,19.18
2022-08-09T21:52:17.599Z,19.16
2022-08-09T21:55:03.047Z,19.05
2022-08-09T21:57:38.302Z,19.07
2022-08-09T22:00:16.671Z,18.99
2022-08-09T22:02:44.140Z,18.96
2022-08-09T22:05:23.388Z,18.85
2022-08-09T22:07:54.143Z,18.80
2022-08-09T22:10:23.974Z,18.77
2022-08-09T22:12:53.197Z,18.70
2022-08-09T22:15:34.807Z,18.65
2022-08-09T22:18:03.178Z,18.54
2022-08-09T22:20:31.182Z,18.53
2022-08-09T22:22:59.033Z,18.44
2022-08-09T22:26:12.216Z,18.45
2022-08-09T22:28:14.723Z,18.37
2022-08-09T22:30:57.400Z,18.28
2022-08-09T22:33:25.889Z,18.22
2022-08-09T22:36:06.014Z,18.21
2022-08-09T22:38:36.399Z,18.12
2022-08-09T22:41:05.707Z,18.08
2022-08-09T22:44:00.651Z,18.02
2022-08-09T22:48:13.137Z,17.90
2022-08-09T22:49:11.055Z,17.83
2022-08-09T22:51:43.291Z,17.79
2022-08-09T22:54:16.877Z,17.79
2022-08-09T22:56:50.877Z,17.74
2022-08-09T22:59:55.927Z,17.67
2022-08-09T23:02:15.058Z,17.59
2022-08-09T23:04:53.304Z,17.57
2022-08-09T23:08:22.493Z,17.54
2022-08-09T23:10:31.704Z,17.51
2022-08-09T23:12:59.254Z,17.48
2022-08-09T23:15:29.081Z,17.45
2022-08-09T23:17:58.921Z,17.39
2022-08-09T23:20:28.849Z,17.44
2022-08-09T23:22:59.963Z,17.42
2022-08-09T23:25:28.867Z,17.35
2022-08-09T23:28:15.413Z,17.25
2022-08-09T23:30:51.964Z,17.20
2022-08-09T23:33:21.982Z,17.17
2022-08-09T23:36:05.997Z,17.18
2022-08-09T23:38:36.041Z,17.15
2022-08-09T23:41:27.826Z,17.09
2022-08-09T23:44:01.042Z,17.02
2022-08-09T23:46:29.999Z,17.00
2022-08-09T23:48:58.726Z,16.95
2022-08-09T23:51:27.508Z,16.89
2022-08-09T23:54:02.139Z,16.82
2022-08-09T23:56:52.860Z,16.77
2022-08-09T23:59:27.069Z,16.69
